AirNav   Free SoundLink Mini II speaker
 
 749 users online  

MO12 St Lukes Hospital West Heliport
Chesterfield, Missouri, USA

GOING TO CHESTERFIELD?


FAA INFORMATION EFFECTIVE 26 MARCH 2020

Location

FAA Identifier: MO12
Lat/Long: 38-39-01.0300N 090-30-11.5500W
38-39.017167N 090-30.192500W
38.6502861,-90.5032083
(estimated)
Elevation: 505 ft. / 154 m (estimated)
Variation: 02E (1985)
From city: 8 miles W of CHESTERFIELD, MO
Time zone: UTC -5 (UTC -6 during Standard Time)
Zip code: 63017

Heliport Operations

Heliport use: Private use, MEDICAL USE.
Activation date: 04/1991
Control tower: no
ARTCC: KANSAS CITY CENTER
FSS: SAINT LOUIS FLIGHT SERVICE STATION
Attendance: CONTINUOUS
Segmented circle: no
Lights: FOR PERIMETER LGTS CALL 314-434-1500.

Heliport Communications

WX ASOS at SUS (7 nm W): 134.8 (314-890-7255)
WX ASOS at STL (9 nm NE): 125.025 (314-890-4790)
WX ASOS at CPS (17 nm E): PHONE 618-332-0001
WX ASOS at SET (17 nm N): 118.075 (636-250-4590)

Nearby radio navigation aids

VOR radial/distance  VOR name  Freq  Var
STLr183/12.7ST LOUIS VORTAC117.4001E
FTZr092/22.1FORISTELL VORTAC110.8005E
TOYr255/27.9TROY VORTAC116.0004E

 
NDB name  Hdg/Dist  Freq  Var  ID
EAVES129/2.622701WFZ ..-. --..
SNOOP088/12.432601WSU ... ..-
CIVIC MEMORIAL236/25.526301WCVM -.-. ...- --

Heliport Services

Runway Information

Helipad H1

Dimensions: 35 x 35 ft. / 11 x 11 m
Surface: asphalt
Runway edge lights: PERI
Operational restrictions: APCH AND DEP PATH FROM 040 TO 170 DEGREES AND FROM 270 TO 300 DEGREES.
Latitude: 38-39.017167N
Longitude: 090-30.192500W
Elevation: 505.0 ft.
Traffic pattern: leftleft

Heliport Ownership and Management from official FAA records

Ownership: Privately-owned
Owner: ST LUKES HOSPITAL & DEVELOP C
232 SOUTH WOODSMILL ROAD
CHESTERFIELD, MO 63017
Phone 314-434-1500
EXT. 4452
Manager: RON BIRDSONG
232 SOUTH WOODMILL ROAD
CHESTERFIELD, MO 63017
Phone 314-205-6166

Heliport Operational Statistics

Aircraft based on the field: 1
Helicopters: 1
    

Additional Remarks

OWNER DESIRES ARPT NOT BE CHARTED.
FOR CD CTC ST LOUIS APCH AT 314-890-1018.

Instrument Procedures

There are no published instrument procedures at MO12.

Some nearby airports with instrument procedures:

1H0 - Creve Coeur Airport (5 nm N)
KSUS - Spirit of St Louis Airport (7 nm W)
KSTL - St Louis Lambert International Airport (9 nm NE)
KCPS - St Louis Downtown Airport (17 nm E)
KSET - St Charles County Smartt Airport (17 nm N)
 
Loc | Ops | Rwys | IFR | FBO | Links
Com | Nav | Svcs | Stats | Notes

Kansas City Aviation Department
 
Area around MO12 (St Lukes Hospital West Heliport)
 
Road maps at: MapQuest Bing Google
 
Aerial photo
No photo
 
Sectional chart

 
Airport distance calculator
Flying to St Lukes Hospital West Heliport? Find the distance to fly.

From to MO12

Sunrise and sunset
Times for 03-Apr-2020
 Local
(UTC-5)
 Zulu
(UTC)
Morning civil twilight06:1611:16
Sunrise06:4311:43
Sunset19:2700:27
Evening civil twilight19:5400:54

Current date and time
Zulu (UTC)  04-Apr-2020 01:05:23
Local (UTC-5)  03-Apr-2020 20:05:23
 
METAR
KSUS 
7nm W 
040054Z 31009KT 6SM -RA FEW019 OVC055 12/08 A3004 RMK AO2 RAE09B40 SLP171 P0000 T01220078
KSTL 
9nm NE 
040051Z 30007KT 10SM -RA OVC070 14/08 A3003 RMK AO2 RAB49 SLP168 P0000 T01390078
KSET 
17nm N 
040054Z AUTO 31011KT 10SM FEW022 OVC070 14/08 A3003 RMK AO2 SLP167 T01440083 $
KCPS 
17nm E 
040053Z 31012KT 10SM -RA OVC055 15/11 A3002 RMK AO2 RAB41 SLP164 P0000 T01500106
TAF
KSUS 
7nm W 
031737Z 0318/0418 23007KT P6SM OVC070 FM032100 27005KT P6SM VCSH OVC035 FM040000 VRB04KT P6SM VCSH OVC020 FM040100 32006KT P6SM VCSH OVC015 FM041000 34009KT P6SM -SHRA OVC007 FM041500 34007KT P6SM OVC007
KSTL 
9nm NE 
032053Z 0321/0424 23005KT P6SM OVC070 FM040000 29005KT P6SM VCSH OVC035 FM040200 32005KT P6SM VCSH OVC025 FM040500 33009KT P6SM -SHRA OVC015 FM041500 34008KT P6SM OVC007 FM041900 35006KT P6SM OVC035
KCPS 
17nm E 
031737Z 0318/0418 23007KT P6SM OVC070 FM032200 24005KT P6SM VCSH OVC045 FM040100 VRB04KT P6SM VCSH OVC025 FM040300 32009KT P6SM VCSH OVC015 FM040800 34009KT P6SM -SHRA OVC007 FM041500 34008KT P6SM OVC007
NOTAMs
Click for the latest NOTAMs
NOTAMs are issued by the DoD/FAA and will open in a separate window not controlled by AirNav.

 

 
 

Would you like to see your business listed on this page?

 If your business provides an interesting product or service to pilots, flight crews, aircraft, or users of the St Lukes Hospital West Heliport, you should consider listing it here.  To start the listing process, click on the button below
 
Add a business
 

Other Pages about St Lukes Hospital West Heliport

Update a link
 
Copyright © AirNav, LLC. All rights reserved. Privacy Policy  Contact